Time;durP1;ratioP1;P1;durP2;ratioP2;P2;SDS_P1;SDS_P2;PMS_P1;PMS_P2;Temp;Humidity;BMP_temperature;BMP_pressure;BME280_temperature;BME280_humidity;BME280_pressure;Samples;Min_cycle;Max_cycle;Signal;HPM_P1;HPM_P2
2021/06/15 00:01:15;;;;;;;;;;;21.20;47.60;;;;;;495588;240;1256;-73
2021/06/15 00:03:17;;;;;;;;;;;21.20;47.60;;;;;;495488;240;1075;-73
2021/06/15 00:05:18;;;;;;;;;;;21.20;47.70;;;;;;495509;240;971;-73
2021/06/15 00:07:19;;;;;;;;;;;21.20;47.80;;;;;;495422;240;1287;-73
2021/06/15 00:09:21;;;;;;;;;;;21.10;47.80;;;;;;495468;240;933;-73
2021/06/15 00:11:22;;;;;;;;;;;21.00;47.90;;;;;;495431;236;1212;-73
2021/06/15 00:13:23;;;;;;;;;;;21.00;47.90;;;;;;495421;240;1045;-73
2021/06/15 00:15:25;;;;;;;;;;;21.00;47.90;;;;;;495471;240;1131;-73
2021/06/15 00:17:26;;;;;;;;;;;21.00;47.90;;;;;;495461;240;2197;-74
2021/06/15 00:19:28;;;;;;;;;;;21.00;47.90;;;;;;495445;240;1005;-73
2021/06/15 00:21:29;;;;;;;;;;;21.00;48.00;;;;;;495493;240;1220;-73
2021/06/15 00:23:30;;;;;;;;;;;21.10;47.90;;;;;;495542;240;998;-73
2021/06/15 00:25:32;;;;;;;;;;;21.20;47.60;;;;;;495465;240;1067;-73
2021/06/15 00:27:33;;;;;;;;;;;21.30;47.40;;;;;;495283;240;1007;-73
2021/06/15 00:29:34;;;;;;;;;;;21.30;47.30;;;;;;495424;240;956;-73
2021/06/15 00:31:36;;;;;;;;;;;21.40;47.20;;;;;;495449;240;1284;-73
2021/06/15 00:33:37;;;;;;;;;;;21.40;47.10;;;;;;495481;240;1018;-73
2021/06/15 00:35:38;;;;;;;;;;;21.40;47.00;;;;;;495503;240;983;-73
2021/06/15 00:37:40;;;;;;;;;;;21.40;47.00;;;;;;495466;240;2131;-73
2021/06/15 00:39:41;;;;;;;;;;;21.50;46.90;;;;;;495473;240;1016;-73
2021/06/15 00:41:42;;;;;;;;;;;21.40;47.00;;;;;;495417;240;1035;-73
2021/06/15 00:43:44;;;;;;;;;;;21.40;47.00;;;;;;495411;240;1272;-73
2021/06/15 00:45:45;;;;;;;;;;;21.40;47.00;;;;;;495459;240;1141;-73
2021/06/15 00:47:46;;;;;;;;;;;21.40;47.10;;;;;;495524;240;1024;-74
2021/06/15 00:49:48;;;;;;;;;;;21.30;47.10;;;;;;495492;240;995;-73
2021/06/15 00:51:49;;;;;;;;;;;21.30;47.10;;;;;;495434;240;991;-73
2021/06/15 00:53:50;;;;;;;;;;;21.40;47.10;;;;;;495459;240;1032;-74
2021/06/15 00:55:52;;;;;;;;;;;21.40;47.00;;;;;;495435;240;1107;-73
2021/06/15 00:57:53;;;;;;;;;;;21.50;46.80;;;;;;495430;240;2143;-74
2021/06/15 00:59:54;;;;;;;;;;;21.50;46.80;;;;;;495460;240;1389;-73
2021/06/15 01:01:55;;;;;;;;;;;21.50;46.80;;;;;;495415;240;1404;-73
2021/06/15 01:03:57;;;;;;;;;;;21.50;46.80;;;;;;495479;240;969;-73
2021/06/15 01:05:58;;;;;;;;;;;21.40;46.90;;;;;;495446;240;1046;-73
2021/06/15 01:07:59;;;;;;;;;;;21.40;47.10;;;;;;495447;240;1196;-74
2021/06/15 01:10:01;;;;;;;;;;;21.40;47.20;;;;;;495487;240;1077;-73
2021/06/15 01:12:02;;;;;;;;;;;21.40;47.10;;;;;;495437;240;1152;-73
2021/06/15 01:14:03;;;;;;;;;;;21.40;47.00;;;;;;495427;240;1082;-73
2021/06/15 01:16:05;;;;;;;;;;;21.40;46.90;;;;;;495452;240;1272;-73
2021/06/15 01:18:06;;;;;;;;;;;21.50;47.00;;;;;;495369;240;2182;-73
2021/06/15 01:20:07;;;;;;;;;;;21.40;47.00;;;;;;495457;240;1033;-73
2021/06/15 01:22:09;;;;;;;;;;;21.40;46.90;;;;;;495437;240;1169;-73
2021/06/15 01:24:10;;;;;;;;;;;21.40;46.90;;;;;;495436;240;1051;-73
2021/06/15 01:26:12;;;;;;;;;;;21.40;46.80;;;;;;495414;240;1339;-73
2021/06/15 01:28:13;;;;;;;;;;;21.40;47.00;;;;;;495404;240;971;-73
2021/06/15 01:30:14;;;;;;;;;;;21.40;47.00;;;;;;495435;240;1035;-73
2021/06/15 01:32:17;;;;;;;;;;;21.50;46.90;;;;;;495402;240;1196;-73
2021/06/15 01:34:18;;;;;;;;;;;21.40;46.80;;;;;;495448;240;1046;-73
2021/06/15 01:36:19;;;;;;;;;;;21.40;46.80;;;;;;495436;240;1087;-73
2021/06/15 01:38:21;;;;;;;;;;;21.40;46.90;;;;;;495496;240;2142;-73
2021/06/15 01:40:22;;;;;;;;;;;21.40;47.00;;;;;;495356;240;1001;-73
2021/06/15 01:42:23;;;;;;;;;;;21.40;47.00;;;;;;495460;240;1196;-74
2021/06/15 01:44:25;;;;;;;;;;;21.50;46.90;;;;;;495486;240;1036;-73
2021/06/15 01:46:26;;;;;;;;;;;21.50;46.80;;;;;;495410;240;1167;-73
2021/06/15 01:48:27;;;;;;;;;;;21.40;46.80;;;;;;495427;240;970;-73
2021/06/15 01:50:32;;;;;;;;;;;21.40;46.90;;;;;;495460;240;1039;-73
2021/06/15 01:52:30;;;;;;;;;;;21.40;46.80;;;;;;495453;240;1335;-73
2021/06/15 01:54:32;;;;;;;;;;;21.40;46.80;;;;;;495432;240;1022;-73
2021/06/15 01:56:33;;;;;;;;;;;21.40;46.70;;;;;;495447;240;1153;-74
2021/06/15 01:58:35;;;;;;;;;;;21.40;46.80;;;;;;495428;240;2194;-74
2021/06/15 02:00:36;;;;;;;;;;;21.40;46.80;;;;;;495515;240;1029;-74
2021/06/15 02:02:37;;;;;;;;;;;21.40;46.80;;;;;;495462;240;1137;-74
2021/06/15 02:04:38;;;;;;;;;;;21.40;46.80;;;;;;495498;240;1094;-73
2021/06/15 02:06:40;;;;;;;;;;;21.40;46.80;;;;;;495429;240;1208;-73
2021/06/15 02:08:41;;;;;;;;;;;21.40;46.80;;;;;;495480;240;996;-73
2021/06/15 02:10:42;;;;;;;;;;;21.30;46.90;;;;;;495459;240;924;-73
2021/06/15 02:12:44;;;;;;;;;;;21.30;47.10;;;;;;495417;240;1237;-73
2021/06/15 02:14:45;;;;;;;;;;;21.30;47.10;;;;;;495455;240;944;-73
2021/06/15 02:16:47;;;;;;;;;;;21.30;47.10;;;;;;495414;240;1195;-73
2021/06/15 02:18:48;;;;;;;;;;;21.20;47.20;;;;;;495469;240;2126;-73
2021/06/15 02:20:49;;;;;;;;;;;21.20;47.20;;;;;;495439;240;1104;-73
2021/06/15 02:22:51;;;;;;;;;;;21.20;47.20;;;;;;495477;240;1271;-73
2021/06/15 02:24:52;;;;;;;;;;;21.20;47.20;;;;;;495546;240;1031;-73
2021/06/15 02:26:53;;;;;;;;;;;21.20;47.20;;;;;;495427;240;1104;-73
2021/06/15 02:28:55;;;;;;;;;;;21.20;47.30;;;;;;495486;240;966;-73
2021/06/15 02:30:56;;;;;;;;;;;21.10;47.30;;;;;;495398;240;1257;-73
2021/06/15 02:32:57;;;;;;;;;;;21.10;47.30;;;;;;495463;240;1076;-73
2021/06/15 02:34:59;;;;;;;;;;;21.00;47.40;;;;;;495478;240;986;-73
2021/06/15 02:37:00;;;;;;;;;;;21.00;47.40;;;;;;495436;240;1231;-73
2021/06/15 02:39:01;;;;;;;;;;;21.00;47.50;;;;;;495491;240;2138;-73
2021/06/15 02:41:03;;;;;;;;;;;21.00;47.40;;;;;;495421;240;964;-73
2021/06/15 02:43:04;;;;;;;;;;;21.00;47.40;;;;;;495479;240;1149;-73
2021/06/15 02:45:05;;;;;;;;;;;21.10;47.30;;;;;;495481;240;953;-73
2021/06/15 02:47:07;;;;;;;;;;;21.20;47.20;;;;;;495426;237;1211;-73
2021/06/15 02:49:08;;;;;;;;;;;21.20;47.10;;;;;;495569;240;1119;-73
2021/06/15 02:51:09;;;;;;;;;;;21.20;47.00;;;;;;495430;240;1170;-73
2021/06/15 02:53:11;;;;;;;;;;;21.20;46.90;;;;;;495511;240;1067;-73
2021/06/15 02:55:12;;;;;;;;;;;21.20;47.00;;;;;;495453;240;1027;-73
2021/06/15 02:57:13;;;;;;;;;;;21.20;47.00;;;;;;495367;240;1135;-73
2021/06/15 02:59:15;;;;;;;;;;;21.20;47.10;;;;;;495449;240;2185;-73
2021/06/15 03:01:16;;;;;;;;;;;21.20;47.00;;;;;;495482;240;1107;-73
2021/06/15 03:03:17;;;;;;;;;;;21.30;47.00;;;;;;495478;240;1211;-73
2021/06/15 03:05:19;;;;;;;;;;;21.20;46.90;;;;;;495544;240;1084;-73
2021/06/15 03:07:20;;;;;;;;;;;21.30;46.80;;;;;;495420;240;1135;-73
2021/06/15 03:09:21;;;;;;;;;;;21.30;46.70;;;;;;495475;240;1164;-73
2021/06/15 03:11:23;;;;;;;;;;;21.40;46.70;;;;;;495435;240;1068;-73
2021/06/15 03:13:24;;;;;;;;;;;21.40;46.70;;;;;;495497;240;1060;-73
2021/06/15 03:15:25;;;;;;;;;;;21.30;46.60;;;;;;495463;240;964;-73
2021/06/15 03:17:27;;;;;;;;;;;21.30;46.70;;;;;;495455;240;1154;-74
2021/06/15 03:19:29;;;;;;;;;;;21.30;46.80;;;;;;495441;240;2185;-73
2021/06/15 03:21:30;;;;;;;;;;;21.30;46.70;;;;;;495458;240;1078;-73
2021/06/15 03:23:31;;;;;;;;;;;21.30;46.80;;;;;;495518;240;949;-73
2021/06/15 03:25:33;;;;;;;;;;;21.30;46.70;;;;;;495459;240;952;-74
2021/06/15 03:27:34;;;;;;;;;;;21.30;46.70;;;;;;495405;240;970;-73
2021/06/15 03:29:35;;;;;;;;;;;21.30;46.70;;;;;;495418;240;1067;-73
2021/06/15 03:31:37;;;;;;;;;;;21.30;46.80;;;;;;495438;240;1256;-73
2021/06/15 03:33:38;;;;;;;;;;;21.30;46.80;;;;;;495477;240;1165;-73
2021/06/15 03:35:40;;;;;;;;;;;21.30;46.70;;;;;;495471;240;957;-73
2021/06/15 03:37:41;;;;;;;;;;;21.30;46.70;;;;;;495433;240;990;-73
2021/06/15 03:39:42;;;;;;;;;;;21.30;46.70;;;;;;495488;240;2190;-73
2021/06/15 03:41:44;;;;;;;;;;;21.30;46.70;;;;;;495391;240;1166;-73
2021/06/15 03:43:45;;;;;;;;;;;21.30;46.70;;;;;;495479;240;1025;-73
2021/06/15 03:45:46;;;;;;;;;;;21.30;46.80;;;;;;495465;240;1045;-73
2021/06/15 03:47:48;;;;;;;;;;;21.30;46.80;;;;;;495435;240;1387;-73
2021/06/15 03:49:49;;;;;;;;;;;21.30;46.80;;;;;;495501;240;961;-73
2021/06/15 03:51:50;;;;;;;;;;;21.30;46.80;;;;;;495445;240;1189;-73
2021/06/15 03:53:52;;;;;;;;;;;21.30;46.80;;;;;;495512;240;1003;-73
2021/06/15 03:55:53;;;;;;;;;;;21.30;46.80;;;;;;495456;240;1025;-73
2021/06/15 03:57:54;;;;;;;;;;;21.30;46.80;;;;;;495432;240;1209;-73
2021/06/15 03:59:56;;;;;;;;;;;21.40;46.70;;;;;;495429;240;2186;-73
2021/06/15 04:01:59;;;;;;;;;;;21.30;46.70;;;;;;495425;240;1163;-73
2021/06/15 04:03:59;;;;;;;;;;;21.30;46.80;;;;;;495542;240;1321;-73
2021/06/15 04:06:00;;;;;;;;;;;21.40;46.70;;;;;;495432;240;1095;-73
2021/06/15 04:08:01;;;;;;;;;;;21.40;46.70;;;;;;495399;240;961;-73
2021/06/15 04:10:04;;;;;;;;;;;21.30;46.70;;;;;;495480;240;1045;-73
2021/06/15 04:12:04;;;;;;;;;;;21.20;47.10;;;;;;495343;240;1395;-73
2021/06/15 04:14:06;;;;;;;;;;;21.20;47.20;;;;;;495436;240;1007;-73
2021/06/15 04:16:07;;;;;;;;;;;21.20;47.20;;;;;;495391;240;1030;-73
2021/06/15 04:18:08;;;;;;;;;;;21.10;47.20;;;;;;495365;240;1122;-73
2021/06/15 04:20:10;;;;;;;;;;;21.10;47.20;;;;;;495321;240;2127;-73
2021/06/15 04:22:11;;;;;;;;;;;21.10;47.20;;;;;;495346;240;1082;-73
2021/06/15 04:24:14;;;;;;;;;;;21.10;47.30;;;;;;495393;240;1214;-73
2021/06/15 04:26:14;;;;;;;;;;;21.10;47.40;;;;;;495324;240;1355;-73
2021/06/15 04:28:15;;;;;;;;;;;21.00;47.40;;;;;;495365;240;1079;-73
2021/06/15 04:30:18;;;;;;;;;;;21.00;47.50;;;;;;495316;240;1043;-73
2021/06/15 04:32:18;;;;;;;;;;;21.00;47.60;;;;;;495274;240;1401;-73
2021/06/15 04:34:20;;;;;;;;;;;21.00;47.70;;;;;;495358;240;1103;-73
2021/06/15 04:36:21;;;;;;;;;;;20.90;47.70;;;;;;495219;240;1273;-73
2021/06/15 04:38:23;;;;;;;;;;;21.00;47.60;;;;;;495272;240;1058;-73
2021/06/15 04:40:24;;;;;;;;;;;21.10;47.60;;;;;;495207;240;2127;-73
2021/06/15 04:42:25;;;;;;;;;;;21.10;47.60;;;;;;495203;240;1164;-73
2021/06/15 04:44:26;;;;;;;;;;;21.10;47.60;;;;;;494962;240;1083;-73
2021/06/15 04:46:28;;;;;;;;;;;21.10;47.60;;;;;;495114;240;1211;-73
2021/06/15 04:48:29;;;;;;;;;;;21.20;47.70;;;;;;495093;240;1199;-73
2021/06/15 04:50:30;;;;;;;;;;;21.20;47.50;;;;;;494982;240;1056;-73
2021/06/15 04:52:32;;;;;;;;;;;21.20;47.60;;;;;;495070;240;1136;-73
2021/06/15 04:54:33;;;;;;;;;;;21.30;47.50;;;;;;495064;240;1118;-73
2021/06/15 04:56:34;;;;;;;;;;;21.30;47.30;;;;;;495019;236;1202;-73
2021/06/15 04:58:36;;;;;;;;;;;21.30;47.50;;;;;;495174;240;1034;-73
2021/06/15 05:00:37;;;;;;;;;;;21.30;47.60;;;;;;494993;240;2178;-73
2021/06/15 05:02:38;;;;;;;;;;;21.30;47.70;;;;;;495060;237;1229;-74
2021/06/15 05:04:40;;;;;;;;;;;21.30;47.70;;;;;;495120;240;1070;-73
2021/06/15 05:06:41;;;;;;;;;;;21.30;47.70;;;;;;495041;240;1351;-73
2021/06/15 05:08:42;;;;;;;;;;;21.30;47.70;;;;;;495215;240;1168;-73
2021/06/15 05:10:44;;;;;;;;;;;21.30;47.70;;;;;;495172;240;1209;-73
2021/06/15 05:12:45;;;;;;;;;;;21.30;47.70;;;;;;495165;240;1001;-73
2021/06/15 05:14:46;;;;;;;;;;;21.30;47.90;;;;;;495178;240;1042;-73
2021/06/15 05:16:48;;;;;;;;;;;21.30;48.10;;;;;;495118;240;1183;-73
2021/06/15 05:18:49;;;;;;;;;;;21.20;48.10;;;;;;495093;240;1193;-73
2021/06/15 05:20:50;;;;;;;;;;;21.30;48.10;;;;;;495071;240;2139;-73
2021/06/15 05:22:52;;;;;;;;;;;21.30;48.20;;;;;;495140;240;1127;-73
2021/06/15 05:24:53;;;;;;;;;;;21.30;48.30;;;;;;495158;240;1008;-73
2021/06/15 05:26:55;;;;;;;;;;;21.30;48.40;;;;;;495035;240;1240;-73
2021/06/15 05:28:56;;;;;;;;;;;21.20;48.40;;;;;;494897;240;1117;-73
2021/06/15 05:30:57;;;;;;;;;;;21.20;48.50;;;;;;494873;240;1146;-73
2021/06/15 05:32:59;;;;;;;;;;;21.30;48.40;;;;;;495194;240;1171;-73
2021/06/15 05:35:00;;;;;;;;;;;21.20;48.50;;;;;;495097;240;1042;-73
2021/06/15 05:37:01;;;;;;;;;;;21.20;48.60;;;;;;495070;240;1215;-74
2021/06/15 05:39:03;;;;;;;;;;;21.30;48.60;;;;;;495150;240;1020;-74
2021/06/15 05:41:04;;;;;;;;;;;21.20;48.70;;;;;;494988;240;2102;-73
2021/06/15 05:43:07;;;;;;;;;;;21.20;48.80;;;;;;495127;240;1228;-73
2021/06/15 05:45:08;;;;;;;;;;;21.20;48.80;;;;;;495094;240;1035;-73
2021/06/15 05:47:10;;;;;;;;;;;21.20;48.80;;;;;;495012;240;1166;-73
2021/06/15 05:49:11;;;;;;;;;;;21.20;48.80;;;;;;494839;240;1209;-74
2021/06/15 05:51:12;;;;;;;;;;;21.20;48.90;;;;;;494805;240;1203;-74
2021/06/15 05:53:14;;;;;;;;;;;21.20;48.90;;;;;;494724;240;1076;-74
2021/06/15 05:55:15;;;;;;;;;;;21.20;49.00;;;;;;494478;240;1082;-73
2021/06/15 05:57:17;;;;;;;;;;;21.20;49.00;;;;;;494708;240;1184;-73
2021/06/15 05:59:18;;;;;;;;;;;21.20;49.00;;;;;;494905;240;2134;-73
2021/06/15 06:01:19;;;;;;;;;;;21.30;48.90;;;;;;494831;240;1058;-73
2021/06/15 06:03:23;;;;;;;;;;;21.30;48.90;;;;;;494933;240;1151;-74
2021/06/15 06:08:06;;;;;;;;;;;21.20;49.00;;;;;;488701;243;1175;-73
2021/06/15 06:10:06;;;;;;;;;;;21.30;48.90;;;;;;494670;240;1846;-73
2021/06/15 06:12:07;;;;;;;;;;;21.40;48.80;;;;;;494783;240;1282;-73
2021/06/15 06:14:09;;;;;;;;;;;21.30;48.90;;;;;;494880;240;1100;-73
2021/06/15 06:16:12;;;;;;;;;;;21.20;49.10;;;;;;494935;240;1091;-73
2021/06/15 06:18:11;;;;;;;;;;;21.10;49.40;;;;;;494871;240;1461;-73
2021/06/15 06:20:13;;;;;;;;;;;21.20;49.60;;;;;;494799;240;2177;-73
2021/06/15 06:22:14;;;;;;;;;;;21.10;49.70;;;;;;494777;240;1061;-73
2021/06/15 06:24:17;;;;;;;;;;;21.00;49.90;;;;;;494989;237;1132;-74
2021/06/15 06:26:17;;;;;;;;;;;21.00;50.00;;;;;;494478;240;1298;-74
2021/06/15 06:28:18;;;;;;;;;;;21.10;50.00;;;;;;494671;240;1099;-74
2021/06/15 06:30:20;;;;;;;;;;;21.00;50.10;;;;;;494520;240;1040;-74
2021/06/15 06:32:20;;;;;;;;;;;21.00;50.20;;;;;;494588;240;1607;-73
2021/06/15 06:34:22;;;;;;;;;;;21.00;50.30;;;;;;494608;240;1299;-74
2021/06/15 06:36:23;;;;;;;;;;;21.00;50.40;;;;;;494610;240;1096;-73
2021/06/15 06:38:24;;;;;;;;;;;20.90;50.50;;;;;;494734;240;1154;-73
2021/06/15 06:40:26;;;;;;;;;;;20.90;50.50;;;;;;494733;240;2194;-73
2021/06/15 06:42:27;;;;;;;;;;;21.00;50.60;;;;;;494754;240;1165;-73
2021/06/15 06:44:28;;;;;;;;;;;20.90;50.70;;;;;;494651;240;1011;-73
2021/06/15 06:46:30;;;;;;;;;;;21.00;50.80;;;;;;494569;240;1270;-73
2021/06/15 06:48:31;;;;;;;;;;;21.00;50.60;;;;;;494684;240;1155;-73
2021/06/15 06:50:32;;;;;;;;;;;21.10;50.50;;;;;;494801;240;1255;-73
2021/06/15 06:52:34;;;;;;;;;;;21.10;50.40;;;;;;494539;240;1096;-73
2021/06/15 06:54:36;;;;;;;;;;;21.10;50.40;;;;;;494586;240;1088;-73
2021/06/15 06:56:38;;;;;;;;;;;21.10;50.30;;;;;;494434;240;1223;-73
2021/06/15 06:58:39;;;;;;;;;;;21.20;50.30;;;;;;494567;240;1104;-73
2021/06/15 07:00:40;;;;;;;;;;;21.20;50.30;;;;;;494531;240;2131;-74
2021/06/15 07:02:42;;;;;;;;;;;21.20;50.30;;;;;;494873;240;1131;-75
2021/06/15 07:04:43;;;;;;;;;;;21.30;50.20;;;;;;495068;240;1168;-74
2021/06/15 07:06:45;;;;;;;;;;;21.30;50.00;;;;;;495202;240;1206;-74
2021/06/15 07:08:46;;;;;;;;;;;21.30;50.00;;;;;;495207;240;1186;-74
2021/06/15 07:10:47;;;;;;;;;;;21.40;50.00;;;;;;495010;240;1077;-75
2021/06/15 07:12:48;;;;;;;;;;;21.40;49.90;;;;;;494951;240;1070;-76
2021/06/15 07:14:50;;;;;;;;;;;21.40;50.10;;;;;;495073;240;1072;-75
2021/06/15 07:16:51;;;;;;;;;;;21.40;50.20;;;;;;495155;240;1329;-75
2021/06/15 07:18:52;;;;;;;;;;;21.30;50.20;;;;;;494875;236;1275;-76
2021/06/15 07:20:54;;;;;;;;;;;21.40;50.30;;;;;;494744;240;2179;-75
2021/06/15 07:22:55;;;;;;;;;;;21.40;50.20;;;;;;495133;240;1170;-76
2021/06/15 07:24:56;;;;;;;;;;;21.40;50.20;;;;;;495021;240;1058;-76
2021/06/15 07:26:58;;;;;;;;;;;21.40;50.30;;;;;;495098;240;1056;-76
2021/06/15 07:28:59;;;;;;;;;;;21.20;50.60;;;;;;494963;240;1183;-74
2021/06/15 07:31:00;;;;;;;;;;;21.10;51.00;;;;;;495021;240;1506;-75
2021/06/15 07:33:02;;;;;;;;;;;21.10;51.20;;;;;;495188;240;1154;-73
2021/06/15 07:35:03;;;;;;;;;;;21.00;51.20;;;;;;495453;240;1569;-74
2021/06/15 07:37:04;;;;;;;;;;;21.00;51.40;;;;;;494646;240;1055;-71
2021/06/15 07:39:06;;;;;;;;;;;21.10;51.30;;;;;;494447;240;1080;-70
2021/06/15 07:41:07;;;;;;;;;;;21.00;51.40;;;;;;494108;240;2190;-72
2021/06/15 07:43:08;;;;;;;;;;;21.00;51.60;;;;;;494502;240;1054;-71
2021/06/15 07:45:10;;;;;;;;;;;21.00;51.60;;;;;;494392;240;1113;-73
2021/06/15 07:47:11;;;;;;;;;;;21.00;51.50;;;;;;494388;240;1051;-75
2021/06/15 07:49:12;;;;;;;;;;;20.90;51.60;;;;;;496152;237;1324;-68
2021/06/15 07:51:14;;;;;;;;;;;21.00;51.70;;;;;;495600;240;1228;-72
2021/06/15 07:53:31;;;;;;;;;;;20.90;51.70;;;;;;494847;240;1061;-69
2021/06/15 07:55:32;;;;;;;;;;;21.00;51.90;;;;;;494835;240;1045;-74
2021/06/15 07:57:34;;;;;;;;;;;20.90;51.80;;;;;;494774;240;1081;-69
2021/06/15 07:59:35;;;;;;;;;;;20.90;51.90;;;;;;494639;240;1212;-68
2021/06/15 08:01:37;;;;;;;;;;;20.80;51.80;;;;;;494727;240;2178;-69
2021/06/15 08:03:38;;;;;;;;;;;20.90;51.80;;;;;;494797;240;1111;-70
2021/06/15 08:05:39;;;;;;;;;;;20.90;51.50;;;;;;494897;240;1146;-70
2021/06/15 08:07:40;;;;;;;;;;;21.00;51.60;;;;;;494552;240;1094;-70
2021/06/15 08:09:42;;;;;;;;;;;20.90;51.60;;;;;;494804;240;1120;-71
2021/06/15 08:11:43;;;;;;;;;;;20.90;51.50;;;;;;494553;240;1257;-70
2021/06/15 08:13:44;;;;;;;;;;;20.80;51.50;;;;;;494367;240;1067;-70
2021/06/15 08:15:48;;;;;;;;;;;20.80;51.60;;;;;;494241;240;1073;-70
2021/06/15 08:17:47;;;;;;;;;;;20.80;51.50;;;;;;494616;240;1302;-69
2021/06/15 08:19:48;;;;;;;;;;;20.80;51.40;;;;;;494685;240;1325;-70
2021/06/15 08:21:50;;;;;;;;;;;20.90;51.40;;;;;;494657;240;2183;-70
2021/06/15 08:23:51;;;;;;;;;;;20.80;51.20;;;;;;494619;240;1206;-70
2021/06/15 08:25:52;;;;;;;;;;;20.80;51.30;;;;;;494485;237;1224;-71
2021/06/15 08:27:54;;;;;;;;;;;20.80;51.10;;;;;;494538;240;1119;-70
2021/06/15 08:29:55;;;;;;;;;;;20.80;51.10;;;;;;494425;240;1077;-70
2021/06/15 08:31:56;;;;;;;;;;;20.90;50.90;;;;;;494499;240;1105;-71
2021/06/15 08:33:58;;;;;;;;;;;21.00;50.50;;;;;;494481;240;1209;-70
2021/06/15 08:35:59;;;;;;;;;;;21.10;50.30;;;;;;494465;240;1307;-70
2021/06/15 08:38:00;;;;;;;;;;;21.10;50.20;;;;;;494422;240;1044;-70
2021/06/15 08:40:02;;;;;;;;;;;21.10;49.90;;;;;;494476;240;1054;-70
2021/06/15 08:42:03;;;;;;;;;;;21.20;49.70;;;;;;494388;240;2170;-70
2021/06/15 08:44:04;;;;;;;;;;;21.20;49.50;;;;;;494440;240;1038;-70
2021/06/15 08:46:06;;;;;;;;;;;21.20;49.50;;;;;;494403;240;1037;-69
2021/06/15 08:48:07;;;;;;;;;;;21.30;49.50;;;;;;494574;240;1168;-69
2021/06/15 08:50:08;;;;;;;;;;;21.20;49.50;;;;;;494489;240;1126;-69
2021/06/15 08:52:10;;;;;;;;;;;21.30;49.60;;;;;;494323;240;1140;-69
2021/06/15 08:54:11;;;;;;;;;;;21.20;49.50;;;;;;494516;240;1086;-68
2021/06/15 08:56:12;;;;;;;;;;;21.30;49.50;;;;;;494495;240;1211;-70
2021/06/15 08:58:14;;;;;;;;;;;21.30;49.30;;;;;;494509;240;1064;-70
2021/06/15 09:00:15;;;;;;;;;;;21.20;49.20;;;;;;494365;240;2185;-69
2021/06/15 09:02:16;;;;;;;;;;;21.30;49.00;;;;;;495091;240;1207;-71
2021/06/15 09:04:19;;;;;;;;;;;21.20;49.00;;;;;;495854;240;1171;-70
2021/06/15 09:08:51;;;;;;;;;;;21.20;49.50;;;;;;493910;237;2679;-72
2021/06/15 09:10:52;;;;;;;;;;;21.10;49.80;;;;;;494371;240;1063;-72
2021/06/15 09:12:53;;;;;;;;;;;21.10;49.50;;;;;;494321;240;1085;-72
2021/06/15 09:14:55;;;;;;;;;;;21.10;49.40;;;;;;494298;240;1066;-72
2021/06/15 09:16:56;;;;;;;;;;;21.00;49.50;;;;;;494293;240;1129;-71
2021/06/15 09:18:57;;;;;;;;;;;21.00;49.50;;;;;;494414;240;1107;-71
2021/06/15 09:21:01;;;;;;;;;;;21.00;49.60;;;;;;494427;240;2179;-71
2021/06/15 09:23:01;;;;;;;;;;;20.90;49.50;;;;;;494468;240;1222;-71
2021/06/15 09:25:02;;;;;;;;;;;21.00;49.60;;;;;;494254;240;1064;-71
2021/06/15 09:27:05;;;;;;;;;;;21.00;49.70;;;;;;493550;240;1223;-71
2021/06/15 09:29:06;;;;;;;;;;;20.90;49.60;;;;;;494473;240;1084;-71
2021/06/15 09:31:08;;;;;;;;;;;20.90;49.60;;;;;;494311;240;1099;-74
2021/06/15 09:33:09;;;;;;;;;;;21.00;49.40;;;;;;493849;240;1176;-76
2021/06/15 09:35:11;;;;;;;;;;;21.00;49.60;;;;;;494496;240;1034;-74
2021/06/15 09:37:12;;;;;;;;;;;20.90;49.40;;;;;;494507;240;1387;-75
2021/06/15 09:39:13;;;;;;;;;;;20.90;49.50;;;;;;494608;240;1052;-75
2021/06/15 09:41:15;;;;;;;;;;;20.90;49.60;;;;;;494481;240;2142;-70
2021/06/15 09:43:16;;;;;;;;;;;20.90;49.60;;;;;;494424;240;1129;-73
2021/06/15 09:45:17;;;;;;;;;;;20.90;49.60;;;;;;494368;240;1091;-72
2021/06/15 09:47:19;;;;;;;;;;;20.80;49.40;;;;;;494279;240;1077;-72
2021/06/15 09:49:20;;;;;;;;;;;20.80;49.50;;;;;;494319;240;1112;-72
2021/06/15 09:51:22;;;;;;;;;;;20.80;49.70;;;;;;494241;237;1395;-73
2021/06/15 09:53:23;;;;;;;;;;;20.90;49.40;;;;;;494271;240;1162;-73
2021/06/15 09:55:25;;;;;;;;;;;21.00;49.10;;;;;;494407;240;1099;-74
2021/06/15 09:57:26;;;;;;;;;;;21.10;48.90;;;;;;495365;240;1040;-74
2021/06/15 09:59:27;;;;;;;;;;;21.10;49.00;;;;;;494937;240;1067;-75
2021/06/15 10:01:29;;;;;;;;;;;21.10;48.70;;;;;;494248;237;2235;-74
2021/06/15 10:03:31;;;;;;;;;;;21.10;48.60;;;;;;494461;240;1028;-74
2021/06/15 10:05:31;;;;;;;;;;;21.10;48.50;;;;;;494021;240;1345;-74
2021/06/15 10:07:33;;;;;;;;;;;21.10;48.50;;;;;;493964;240;1174;-74
2021/06/15 10:09:34;;;;;;;;;;;21.00;48.30;;;;;;494263;240;1054;-74
2021/06/15 10:11:35;;;;;;;;;;;21.00;48.30;;;;;;493787;240;1192;-74
2021/06/15 10:13:37;;;;;;;;;;;20.90;48.50;;;;;;494218;240;1105;-73
2021/06/15 10:15:39;;;;;;;;;;;20.90;48.50;;;;;;494272;240;1107;-74
2021/06/15 10:17:40;;;;;;;;;;;20.90;48.60;;;;;;494272;240;1115;-72
2021/06/15 10:19:41;;;;;;;;;;;20.90;48.50;;;;;;494167;240;1095;-72
2021/06/15 10:21:43;;;;;;;;;;;20.90;48.50;;;;;;494191;240;2194;-72
2021/06/15 10:23:44;;;;;;;;;;;20.90;48.50;;;;;;494519;240;1226;-72
2021/06/15 10:25:45;;;;;;;;;;;20.90;48.40;;;;;;494381;240;1058;-72
2021/06/15 10:27:47;;;;;;;;;;;20.80;48.50;;;;;;494447;240;1412;-71
2021/06/15 10:29:48;;;;;;;;;;;20.90;48.40;;;;;;494396;240;1120;-71
2021/06/15 10:31:49;;;;;;;;;;;20.80;48.30;;;;;;494183;240;1180;-72
2021/06/15 10:33:51;;;;;;;;;;;20.90;48.20;;;;;;494392;240;1089;-72
2021/06/15 10:35:52;;;;;;;;;;;20.80;48.20;;;;;;494450;240;1103;-72
2021/06/15 10:37:54;;;;;;;;;;;20.80;48.40;;;;;;494304;240;1183;-71
2021/06/15 10:39:55;;;;;;;;;;;20.70;48.50;;;;;;494320;240;1058;-71
2021/06/15 10:41:56;;;;;;;;;;;20.80;48.50;;;;;;494463;240;2179;-71
2021/06/15 10:43:57;;;;;;;;;;;20.80;48.60;;;;;;494339;240;1041;-71
2021/06/15 10:45:59;;;;;;;;;;;20.70;48.50;;;;;;494301;240;1172;-71
2021/06/15 10:48:00;;;;;;;;;;;20.80;48.40;;;;;;494526;240;1152;-71
2021/06/15 10:50:01;;;;;;;;;;;20.90;48.50;;;;;;494599;240;1082;-71
2021/06/15 10:52:03;;;;;;;;;;;20.90;48.30;;;;;;494543;240;1126;-71
2021/06/15 10:54:04;;;;;;;;;;;21.00;48.00;;;;;;494451;240;1150;-71
2021/06/15 10:56:05;;;;;;;;;;;21.00;47.90;;;;;;494363;240;1247;-71
2021/06/15 10:58:07;;;;;;;;;;;20.90;48.00;;;;;;494461;240;1522;-71
2021/06/15 11:00:08;;;;;;;;;;;20.90;48.20;;;;;;494448;240;1201;-71
2021/06/15 11:02:09;;;;;;;;;;;21.00;48.20;;;;;;494473;240;2189;-71
2021/06/15 11:04:11;;;;;;;;;;;21.00;48.10;;;;;;494768;240;1197;-71
2021/06/15 11:06:12;;;;;;;;;;;21.00;48.20;;;;;;494489;240;1153;-71
2021/06/15 11:08:14;;;;;;;;;;;21.00;48.20;;;;;;494453;240;1124;-71
2021/06/15 11:10:15;;;;;;;;;;;21.10;48.30;;;;;;494363;240;1116;-71
2021/06/15 11:12:17;;;;;;;;;;;21.10;48.10;;;;;;494367;240;1146;-71
2021/06/15 11:14:18;;;;;;;;;;;21.00;48.20;;;;;;494579;240;1093;-73
2021/06/15 11:16:19;;;;;;;;;;;20.90;48.40;;;;;;494440;240;1132;-71
2021/06/15 11:18:21;;;;;;;;;;;20.90;48.50;;;;;;494395;240;1092;-71
2021/06/15 11:20:22;;;;;;;;;;;20.80;48.70;;;;;;494384;240;1070;-71
2021/06/15 11:22:23;;;;;;;;;;;20.80;48.70;;;;;;494413;240;2191;-72
2021/06/15 11:24:25;;;;;;;;;;;20.80;48.90;;;;;;494365;240;1190;-73
2021/06/15 11:26:26;;;;;;;;;;;20.70;48.90;;;;;;494303;240;1087;-72
2021/06/15 11:28:28;;;;;;;;;;;20.70;49.10;;;;;;494489;240;1080;-71
2021/06/15 11:30:30;;;;;;;;;;;20.70;49.20;;;;;;494567;240;1028;-71
2021/06/15 11:32:33;;;;;;;;;;;20.70;49.20;;;;;;494615;240;1301;-73
2021/06/15 11:34:32;;;;;;;;;;;20.60;49.30;;;;;;494432;240;1327;-73
2021/06/15 11:36:33;;;;;;;;;;;20.60;49.40;;;;;;494298;240;1051;-72
2021/06/15 11:38:34;;;;;;;;;;;20.80;49.20;;;;;;494428;236;1313;-72
2021/06/15 11:40:36;;;;;;;;;;;20.80;48.90;;;;;;494518;240;1422;-74
2021/06/15 11:42:37;;;;;;;;;;;20.90;48.80;;;;;;494449;240;2242;-72
2021/06/15 11:44:38;;;;;;;;;;;21.00;48.70;;;;;;494453;240;1085;-72
2021/06/15 11:46:40;;;;;;;;;;;21.00;48.50;;;;;;494568;240;1081;-72
2021/06/15 11:48:44;;;;;;;;;;;21.00;48.40;;;;;;494643;240;1212;-72
2021/06/15 11:50:44;;;;;;;;;;;21.10;48.20;;;;;;494493;240;1376;-72
2021/06/15 11:52:43;;;;;;;;;;;21.20;47.90;;;;;;494647;240;2410;-72
2021/06/15 11:54:45;;;;;;;;;;;21.30;47.50;;;;;;494749;240;1093;-72
2021/06/15 11:56:46;;;;;;;;;;;21.40;47.20;;;;;;494334;240;1232;-73
2021/06/15 11:58:54;;;;;;;;;;;21.60;47.00;;;;;;494552;240;1191;-71
2021/06/15 12:00:49;;;;;;;;;;;21.60;46.90;;;;;;495400;240;1306;-71
2021/06/15 12:02:50;;;;;;;;;;;21.60;46.80;;;;;;494448;240;2206;-71